Time;durP1;ratioP1;P1;durP2;ratioP2;P2;SDS_P1;SDS_P2;PMS_P1;PMS_P2;Temp;Humidity;BMP_temperature;BMP_pressure;BME280_temperature;BME280_humidity;BME280_pressure;Samples;Min_cycle;Max_cycle;Signal;HPM_P1;HPM_P2
2021/03/15 00:00:51;;;;;;;17.77;7.85;;;;;;;2.34;81.83;99868.54;1734121;80;25850;-59
2021/03/15 00:03:20;;;;;;;19.98;8.03;;;;;;;2.32;81.87;99867.25;1726324;80;26020;-59
2021/03/15 00:05:47;;;;;;;16.57;8.18;;;;;;;2.32;81.87;99861.09;1707172;81;26087;-59
2021/03/15 00:08:15;;;;;;;16.25;7.25;;;;;;;2.31;81.88;99864.19;1722620;81;27903;-59
2021/03/15 00:10:43;;;;;;;14.98;6.97;;;;;;;2.33;81.94;99864.16;1698885;81;26054;-59
2021/03/15 00:13:10;;;;;;;16.32;8.60;;;;;;;2.34;82.11;99867.22;1717451;80;26274;-59
2021/03/15 00:15:38;;;;;;;19.15;8.73;;;;;;;2.36;82.18;99862.77;1723577;81;26227;-59
2021/03/15 00:18:06;;;;;;;21.42;9.88;;;;;;;2.34;82.16;99860.61;1710272;81;25897;-64
2021/03/15 00:20:34;;;;;;;18.80;6.62;;;;;;;2.32;82.12;99869.03;1725851;80;26480;-64
2021/03/15 00:23:02;;;;;;;19.17;8.55;;;;;;;2.31;82.22;99873.45;1732161;80;25931;-63
2021/03/15 00:25:31;;;;;;;23.55;9.35;;;;;;;2.29;82.25;99868.64;1735108;80;26034;-64
2021/03/15 00:27:59;;;;;;;27.60;10.08;;;;;;;2.30;82.39;99861.58;1719446;81;26163;-64
2021/03/15 00:30:27;;;;;;;13.40;7.15;;;;;;;2.28;82.47;99865.13;1713617;80;25876;-64
2021/03/15 00:32:54;;;;;;;17.95;8.78;;;;;;;2.28;82.54;99854.55;1693996;82;28718;-64
2021/03/15 00:35:23;;;;;;;23.22;9.25;;;;;;;2.29;82.48;99860.70;1725677;80;25881;-64
2021/03/15 00:37:51;;;;;;;17.20;6.80;;;;;;;2.28;82.42;99869.55;1718525;81;25951;-64
2021/03/15 00:40:22;;;;;;;32.63;11.50;;;;;;;2.30;82.64;99857.16;1719384;81;25915;-64
2021/03/15 00:42:53;;;;;;;28.83;9.98;;;;;;;2.30;82.48;99862.91;1715663;82;25978;-64
2021/03/15 00:45:24;;;;;;;16.10;7.77;;;;;;;2.26;82.39;99864.30;1723883;80;28210;-64
2021/03/15 00:47:53;;;;;;;10.65;6.35;;;;;;;2.25;82.38;99859.03;1723458;80;26340;-64
2021/03/15 00:50:41;;;;;;;22.93;7.55;;;;;;;2.23;82.49;99850.27;1721446;80;25842;-64
2021/03/15 00:53:09;;;;;;;21.57;7.55;;;;;;;2.23;82.47;99851.59;1718462;81;26607;-64
2021/03/15 00:55:38;;;;;;;23.83;10.05;;;;;;;2.18;82.40;99842.44;1718853;79;25817;-64
2021/03/15 00:58:05;;;;;;;14.07;6.25;;;;;;;2.13;82.36;99845.64;1685064;82;26432;-64
2021/03/15 01:00:37;;;;;;;14.38;7.33;;;;;;;2.11;82.43;99848.77;1719908;80;26094;-64
2021/03/15 01:03:05;;;;;;;16.17;8.05;;;;;;;2.10;82.39;99842.19;1729910;80;26770;-64
2021/03/15 01:05:40;;;;;;;18.77;8.38;;;;;;;2.09;82.42;99845.73;1714324;80;26299;-64
2021/03/15 01:08:10;;;;;;;20.97;9.40;;;;;;;2.06;82.38;99845.35;1718139;80;26192;-64
2021/03/15 01:10:40;;;;;;;20.30;8.55;;;;;;;2.02;82.41;99843.67;1710518;80;27980;-64
2021/03/15 01:13:09;;;;;;;21.52;7.97;;;;;;;1.99;82.52;99835.81;1713428;81;26590;-64
2021/03/15 01:15:39;;;;;;;24.47;9.58;;;;;;;1.96;82.53;99829.27;1714654;81;25814;-64
2021/03/15 01:18:08;;;;;;;28.23;9.93;;;;;;;1.94;82.52;99831.08;1725742;81;25909;-64
2021/03/15 01:20:38;;;;;;;31.70;12.90;;;;;;;1.92;82.54;99831.56;1717362;80;25936;-64
2021/03/15 01:23:06;;;;;;;49.35;16.35;;;;;;;1.88;82.52;99826.80;1716883;80;27806;-64
2021/03/15 01:25:41;;;;;;;51.25;17.00;;;;;;;1.85;82.53;99817.61;1686959;81;25849;-64
2021/03/15 01:28:13;;;;;;;49.63;18.05;;;;;;;1.83;82.55;99819.41;1677996;82;25840;-64
2021/03/15 01:30:44;;;;;;;46.53;15.63;;;;;;;1.81;82.71;99816.39;1715911;80;26027;-64
2021/03/15 01:33:12;;;;;;;34.80;13.18;;;;;;;1.81;82.77;99813.74;1691328;81;25990;-64
2021/03/15 01:35:41;;;;;;;37.25;12.47;;;;;;;1.79;82.76;99815.55;1696089;81;27542;-64
2021/03/15 01:38:10;;;;;;;55.73;17.52;;;;;;;1.79;82.78;99817.73;1682267;82;26338;-64
2021/03/15 01:40:39;;;;;;;40.78;13.20;;;;;;;1.78;82.82;99816.00;1717231;81;25831;-64
2021/03/15 01:43:08;;;;;;;47.15;14.18;;;;;;;1.80;82.89;99815.97;1696746;82;25925;-64
2021/03/15 01:45:37;;;;;;;36.75;12.82;;;;;;;1.83;83.07;99818.09;1671740;82;25943;-64
2021/03/15 01:48:12;;;;;;;57.20;17.27;;;;;;;1.87;83.17;99812.30;1670623;83;27346;-64
2021/03/15 01:50:47;;;;;;;31.20;9.93;;;;;;;1.91;83.18;99807.36;1697466;82;25872;-64
2021/03/15 01:53:18;;;;;;;47.00;13.13;;;;;;;1.66;83.40;99762.55;1671249;83;25841;-64
2021/03/15 01:55:46;;;;;;;;;;;;;;;2.00;83.41;99803.64;1671703;82;26521;-64
2021/03/15 01:58:15;;;;;;;42.60;13.60;;;;;;;2.01;83.35;99805.39;1680440;82;26768;-64
2021/03/15 02:00:44;;;;;;;27.93;10.13;;;;;;;1.99;83.30;99804.09;1691464;81;27460;-64
2021/03/15 02:03:12;;;;;;;24.98;9.35;;;;;;;1.97;83.33;99803.27;1693829;82;25850;-64
2021/03/15 02:05:42;;;;;;;28.85;11.20;;;;;;;1.97;83.29;99805.03;1694020;81;25801;-64
2021/03/15 02:08:09;;;;;;;25.60;11.53;;;;;;;1.94;83.24;99800.69;1682891;81;25913;-64
2021/03/15 02:10:37;;;;;;;25.97;11.93;;;;;;;1.92;83.23;99795.89;1691527;81;25899;-64
2021/03/15 02:13:40;;;;;;;26.52;13.03;;;;;;;1.89;83.19;99798.59;1670602;83;27847;-64
2021/03/15 02:16:42;;;;;;;22.45;11.90;;;;;;;1.83;83.16;99804.88;1662454;83;25845;-64
2021/03/15 02:19:47;;;;;;;29.55;13.35;;;;;;;1.77;83.10;99809.42;1694784;82;25926;-64
2021/03/15 02:23:02;;;;;;;36.23;14.20;;;;;;;1.70;83.16;99807.36;1678951;82;25880;-64
2021/03/15 02:25:55;;;;;;;30.02;14.33;;;;;;;1.65;83.14;99804.39;1680040;81;26306;-64
2021/03/15 02:29:00;;;;;;;35.08;14.95;;;;;;;1.58;83.15;99811.13;1678551;81;27716;-64
2021/03/15 02:32:07;;;;;;;40.65;18.17;;;;;;;1.56;83.18;99806.77;1714803;80;25913;-64
2021/03/15 02:35:05;;;;;;;48.80;23.50;;;;;;;1.52;83.17;99805.09;1713044;80;25955;-64
2021/03/15 02:37:57;;;;;;;56.75;24.92;;;;;;;1.48;83.16;99801.65;1730570;80;26629;-64
2021/03/15 02:40:44;;;;;;;49.98;25.62;;;;;;;1.45;83.19;99806.98;1693822;81;25936;-64
2021/03/15 02:43:29;;;;;;;50.73;22.62;;;;;;;1.42;83.18;99812.33;1703547;82;27882;-63
2021/03/15 02:46:04;;;;;;;45.38;23.22;;;;;;;1.36;83.18;99805.84;1698479;81;25828;-63
2021/03/15 02:48:36;;;;;;;47.88;21.37;;;;;;;1.32;83.18;99801.53;1701572;81;25928;-63
2021/03/15 02:51:06;;;;;;;42.93;20.52;;;;;;;1.27;83.20;99806.89;1707462;81;25933;-63
2021/03/15 02:53:35;;;;;;;50.73;19.25;;;;;;;1.24;83.25;99802.13;1695938;81;25918;-63
2021/03/15 02:56:13;;;;;;;46.02;19.65;;;;;;;1.22;83.28;99805.24;1706383;81;27661;-63
2021/03/15 02:58:42;;;;;;;37.75;16.62;;;;;;;1.20;83.31;99805.72;1703762;81;26331;-64
2021/03/15 03:01:11;;;;;;;36.50;16.85;;;;;;;1.18;83.34;99801.80;1741646;80;25811;-63
2021/03/15 03:03:42;;;;;;;40.00;16.55;;;;;;;1.16;83.31;99806.68;1730961;81;25860;-63
2021/03/15 03:06:11;;;;;;;40.67;17.37;;;;;;;1.12;83.29;99808.95;1704069;82;25813;-63
2021/03/15 03:08:39;;;;;;;41.58;18.48;;;;;;;1.09;83.33;99809.01;1725899;81;27852;-63
2021/03/15 03:11:08;;;;;;;36.30;17.80;;;;;;;1.07;83.42;99805.53;1705510;80;25892;-64
2021/03/15 03:13:37;;;;;;;38.08;16.42;;;;;;;1.06;83.47;99805.11;1703119;81;25902;-64
2021/03/15 03:16:06;;;;;;;41.42;17.45;;;;;;;1.04;83.49;99808.22;1702026;81;25954;-64
2021/03/15 03:18:36;;;;;;;34.45;16.45;;;;;;;1.03;83.53;99813.08;1709851;81;25901;-64
2021/03/15 03:21:07;;;;;;;31.60;15.78;;;;;;;1.03;83.60;99811.76;1702435;82;28426;-64
2021/03/15 03:23:38;;;;;;;36.37;17.53;;;;;;;1.02;83.64;99809.57;1697364;81;26506;-64
2021/03/15 03:26:08;;;;;;;43.00;18.75;;;;;;;1.04;83.68;99816.14;1687640;83;25917;-64
2021/03/15 03:28:36;;;;;;;47.03;17.52;;;;;;;1.05;83.71;99820.52;1676984;83;26040;-64
2021/03/15 03:31:07;;;;;;;42.58;19.37;;;;;;;1.07;83.71;99825.32;1696071;81;25871;-64
2021/03/15 03:33:36;;;;;;;46.68;19.67;;;;;;;1.10;83.74;99827.91;1697216;81;27397;-64
2021/03/15 03:36:06;;;;;;;38.88;19.35;;;;;;;1.13;83.77;99826.53;1695550;82;25926;-64
2021/03/15 03:38:34;;;;;;;47.67;22.15;;;;;;;1.14;83.80;99829.14;1686638;82;25837;-64
2021/03/15 03:41:02;;;;;;;47.05;22.17;;;;;;;1.16;83.83;99823.83;1699326;82;25977;-64
2021/03/15 03:43:30;;;;;;;42.15;19.57;;;;;;;1.18;83.92;99825.99;1703937;81;26118;-64
2021/03/15 03:45:58;;;;;;;49.27;20.48;;;;;;;1.19;83.97;99827.29;1694028;81;27883;-64
2021/03/15 03:48:26;;;;;;;32.75;17.82;;;;;;;1.21;83.99;99821.53;1700864;81;25820;-64
2021/03/15 03:50:54;;;;;;;50.88;21.62;;;;;;;1.23;84.10;99828.97;1699110;81;25976;-64
2021/03/15 03:53:30;;;;;;;48.17;22.35;;;;;;;1.22;84.13;99823.27;1682467;82;25892;-64
2021/03/15 03:56:26;;;;;;;41.60;19.95;;;;;;;1.26;84.20;99824.08;1706738;80;26218;-64
2021/03/15 03:58:55;;;;;;;52.03;22.65;;;;;;;1.28;84.28;99823.16;1681538;82;28602;-64
2021/03/15 04:01:36;;;;;;;57.98;23.95;;;;;;;1.28;84.36;99829.75;1658875;82;25826;-64
2021/03/15 04:04:07;;;;;;;46.63;22.70;;;;;;;1.32;84.37;99828.38;1696435;81;26092;-64
2021/03/15 04:06:36;;;;;;;46.10;23.10;;;;;;;1.36;84.45;99830.06;1680831;82;26457;-64
2021/03/15 04:09:12;;;;;;;47.60;23.98;;;;;;;1.37;84.46;99832.67;1697142;82;25941;-64
2021/03/15 04:11:49;;;;;;;43.02;21.25;;;;;;;1.41;84.48;99833.03;1687304;82;27705;-64
2021/03/15 04:14:25;;;;;;;41.00;19.62;;;;;;;1.44;84.52;99833.42;1722951;81;25816;-64
2021/03/15 04:16:56;;;;;;;43.60;19.30;;;;;;;1.45;84.50;99832.08;1680379;82;25851;-64
2021/03/15 04:19:29;;;;;;;34.83;18.17;;;;;;;1.45;84.64;99834.72;1678263;83;25869;-64
2021/03/15 04:22:05;;;;;;;38.73;19.05;;;;;;;1.47;84.73;99838.20;1686894;82;25917;-65
2021/03/15 04:24:37;;;;;;;52.05;18.55;;;;;;;1.46;84.71;99829.86;1704363;81;26193;-64
2021/03/15 04:27:06;;;;;;;37.40;17.20;;;;;;;1.47;84.76;99827.63;1720535;80;26365;-64
2021/03/15 04:29:35;;;;;;;42.23;18.95;;;;;;;1.46;85.08;99827.22;1698644;81;25942;-64
2021/03/15 04:32:04;;;;;;;40.78;17.07;;;;;;;1.46;84.88;99823.70;1743664;80;25810;-64
2021/03/15 04:34:34;;;;;;;32.35;15.35;;;;;;;1.46;84.91;99826.34;1712586;80;25896;-64
2021/03/15 04:37:05;;;;;;;36.30;15.95;;;;;;;1.46;84.96;99822.38;1713933;81;27362;-64
2021/03/15 04:39:36;;;;;;;38.63;16.95;;;;;;;1.45;84.99;99818.87;1696890;80;26255;-64
2021/03/15 04:42:05;;;;;;;35.35;16.80;;;;;;;1.45;85.03;99824.16;1715616;81;25907;-64
2021/03/15 04:44:38;;;;;;;39.85;18.00;;;;;;;1.44;85.04;99823.73;1710407;80;26528;-64
2021/03/15 04:47:06;;;;;;;48.30;18.67;;;;;;;1.44;85.05;99838.25;1719605;80;26092;-64
2021/03/15 04:49:38;;;;;;;45.88;18.73;;;;;;;1.44;85.09;99838.25;1736595;79;27481;-64
2021/03/15 04:52:06;;;;;;;;;;;;;;;1.46;85.09;99840.87;1715083;82;25882;-64
2021/03/15 04:54:34;;;;;;;40.98;17.12;;;;;;;1.47;85.15;99834.23;1712323;81;25952;-64
2021/03/15 04:57:04;;;;;;;45.15;19.52;;;;;;;1.47;85.18;99838.64;1708475;81;26490;-64
2021/03/15 04:59:34;;;;;;;50.48;19.82;;;;;;;1.47;85.15;99837.33;1714301;81;25892;-64
2021/03/15 05:02:04;;;;;;;48.10;19.47;;;;;;;1.48;85.17;99845.22;1705208;81;27420;-64
2021/03/15 05:04:32;;;;;;;52.98;19.40;;;;;;;1.48;85.18;99847.86;1707561;81;25837;-64
2021/03/15 05:07:02;;;;;;;38.15;18.15;;;;;;;1.50;85.16;99844.73;1708324;82;25897;-64
2021/03/15 05:09:31;;;;;;;47.43;17.95;;;;;;;1.52;85.15;99850.86;1717681;80;25946;-64
2021/03/15 05:12:00;;;;;;;41.83;19.37;;;;;;;1.52;85.18;99852.19;1706241;81;25939;-64
2021/03/15 05:14:28;;;;;;;39.53;15.78;;;;;;;1.53;85.20;99854.38;1708645;80;27520;-64
2021/03/15 05:16:57;;;;;;;40.85;18.05;;;;;;;1.52;85.25;99856.14;1710319;81;25876;-64
2021/03/15 05:19:26;;;;;;;43.65;18.62;;;;;;;1.55;85.27;99857.86;1724167;80;25834;-64
2021/03/15 05:21:54;;;;;;;32.65;16.37;;;;;;;1.57;85.26;99854.73;1699977;82;26733;-64
2021/03/15 05:24:22;;;;;;;40.83;17.12;;;;;;;1.60;85.34;99852.03;1699698;81;25934;-64
2021/03/15 05:26:50;;;;;;;41.25;17.60;;;;;;;1.59;85.28;99852.48;1686819;81;27848;-64
2021/03/15 05:29:20;;;;;;;46.83;17.60;;;;;;;1.61;85.31;99853.77;1680160;82;26139;-64
2021/03/15 05:31:50;;;;;;;46.23;19.62;;;;;;;1.61;85.34;99864.34;1632778;83;25976;-64
2021/03/15 05:34:22;;;;;;;44.83;18.90;;;;;;;1.63;85.33;99866.50;1671816;83;26725;-64
2021/03/15 05:36:51;;;;;;;38.73;17.10;;;;;;;1.63;85.35;99870.02;1677556;83;25866;-64
2021/03/15 05:39:19;;;;;;;39.88;17.52;;;;;;;1.66;85.38;99872.17;1689083;81;27416;-64
2021/03/15 05:41:52;;;;;;;40.63;16.55;;;;;;;1.67;85.43;99864.22;1663969;84;25675;-64
2021/03/15 05:44:43;;;;;;;36.60;15.98;;;;;;;1.68;85.48;99870.38;1678002;83;26162;-64
2021/03/15 05:47:59;;;;;;;47.58;19.75;;;;;;;1.69;85.50;99868.16;1696632;82;25978;-64
2021/03/15 05:50:55;;;;;;;47.05;20.70;;;;;;;1.73;85.56;99864.55;1676596;82;26001;-64
2021/03/15 05:54:03;;;;;;;43.48;20.17;;;;;;;1.75;85.58;99865.39;1685628;81;28612;-64
2021/03/15 05:56:43;;;;;;;51.83;20.55;;;;;;;1.79;85.60;99864.42;1676948;81;25829;-64
2021/03/15 05:59:37;;;;;;;43.40;19.92;;;;;;;1.80;85.58;99859.56;1636011;84;26446;-64
2021/03/15 06:02:44;;;;;;;47.13;20.72;;;;;;;1.83;85.57;99863.46;1656434;84;25945;-64
2021/03/15 06:05:28;;;;;;;56.60;21.35;;;;;;;1.84;85.55;99859.47;1673637;84;25958;-65
2021/03/15 06:08:24;;;;;;;51.60;20.82;;;;;;;1.87;85.58;99866.46;1640089;84;28678;-64
2021/03/15 06:11:07;;;;;;;47.08;21.17;;;;;;;1.85;85.58;99845.80;1645904;84;26632;-63
2021/03/15 06:13:36;;;;;;;58.38;22.82;;;;;;;1.92;85.58;99861.95;1646727;84;26105;-64
2021/03/15 06:16:07;;;;;;;58.78;22.67;;;;;;;1.93;85.55;99857.95;1691529;82;25891;-64
2021/03/15 06:18:35;;;;;;;56.48;21.55;;;;;;;1.95;85.58;99851.31;1689812;83;26509;-66
2021/03/15 06:21:05;;;;;;;66.95;25.25;;;;;;;1.90;85.56;99848.77;1675915;83;27687;-65
2021/03/15 06:23:33;;;;;;;61.77;25.80;;;;;;;1.99;85.58;99860.05;1635176;83;25880;-63
2021/03/15 06:26:03;;;;;;;57.35;25.90;;;;;;;2.02;85.55;99869.23;1651414;83;25689;-64
2021/03/15 06:28:31;;;;;;;60.55;26.77;;;;;;;2.02;85.53;99869.23;1663964;84;26387;-63
2021/03/15 06:30:59;;;;;;;58.65;27.30;;;;;;;2.02;85.56;99860.86;1639010;84;25953;-63
2021/03/15 06:33:28;;;;;;;59.40;26.55;;;;;;;2.03;85.57;99857.31;1648062;83;27516;-63
2021/03/15 06:36:04;;;;;;;54.67;23.98;;;;;;;2.06;85.58;99859.89;1640312;84;26000;-63
2021/03/15 06:38:34;;;;;;;55.85;24.27;;;;;;;2.11;85.61;99865.95;1638873;84;26043;-63
2021/03/15 06:41:07;;;;;;;55.88;24.60;;;;;;;2.16;85.62;99864.53;1631170;85;26294;-63
2021/03/15 06:43:35;;;;;;;60.83;25.45;;;;;;;2.22;85.64;99866.58;1641448;84;25806;-63
2021/03/15 06:46:03;;;;;;;58.75;24.30;;;;;;;2.24;85.63;99863.45;1634935;84;26377;-63
2021/03/15 06:48:31;;;;;;;50.70;22.90;;;;;;;2.30;85.64;99864.22;1632846;83;26268;-63
2021/03/15 06:50:59;;;;;;;60.55;26.30;;;;;;;2.33;85.62;99865.48;1632148;84;25843;-63
2021/03/15 06:53:39;;;;;;;50.05;24.07;;;;;;;2.37;85.65;99864.05;1670922;82;26602;-64
2021/03/15 06:56:17;;;;;;;58.70;25.43;;;;;;;2.40;85.64;99862.66;1624639;85;26051;-63
2021/03/15 06:58:54;;;;;;;54.67;25.77;;;;;;;2.43;85.62;99865.69;1636275;84;26651;-63
2021/03/15 07:01:27;;;;;;;59.98;25.32;;;;;;;2.45;85.63;99866.07;1693085;80;26527;-63
2021/03/15 07:04:11;;;;;;;71.72;30.37;;;;;;;2.49;85.67;99866.88;1685230;81;25840;-64
2021/03/15 07:06:42;;;;;;;58.65;25.95;;;;;;;2.57;85.79;99864.92;1738258;80;26397;-63
2021/03/15 07:09:15;;;;;;;53.23;25.95;;;;;;;2.59;85.66;99861.78;1736914;80;25983;-63
2021/03/15 07:11:44;;;;;;;58.33;25.52;;;;;;;2.65;85.72;99864.70;1706066;81;27694;-63
2021/03/15 07:14:25;;;;;;;48.80;22.17;;;;;;;2.70;85.76;99879.56;1668680;83;25911;-64
2021/03/15 07:17:02;;;;;;;55.50;24.57;;;;;;;2.73;85.70;99878.17;1711114;81;26345;-63
2021/03/15 07:19:30;;;;;;;55.08;24.45;;;;;;;2.76;85.72;99883.84;1671613;83;26295;-64
2021/03/15 07:21:58;;;;;;;47.65;20.90;;;;;;;2.76;85.72;99883.84;1702816;81;25874;-64
2021/03/15 07:24:30;;;;;;;49.03;21.77;;;;;;;2.80;85.73;99885.05;1741478;79;27613;-63
2021/03/15 07:26:59;;;;;;;45.17;20.40;;;;;;;2.79;85.71;99879.80;1676221;83;26506;-64
2021/03/15 07:29:28;;;;;;;38.08;17.15;;;;;;;2.80;85.75;99893.00;1736486;80;25837;-63
2021/03/15 07:31:56;;;;;;;42.25;17.65;;;;;;;2.82;85.78;99891.64;1707584;81;25841;-64
2021/03/15 07:34:24;;;;;;;48.75;20.68;;;;;;;2.81;85.76;99889.90;1733037;81;25923;-64
2021/03/15 07:36:58;;;;;;;41.37;18.85;;;;;;;2.84;85.85;99887.17;1706721;82;28690;-65
2021/03/15 07:39:29;;;;;;;50.48;21.77;;;;;;;2.83;85.81;99886.30;1735859;80;25925;-65
2021/03/15 07:42:01;;;;;;;47.38;22.45;;;;;;;2.85;85.89;99887.14;1722744;81;26192;-63
2021/03/15 07:44:34;;;;;;;48.42;22.55;;;;;;;2.90;85.88;99890.55;1687304;82;26300;-65
2021/03/15 07:47:06;;;;;;;52.20;21.05;;;;;;;2.93;85.89;99888.28;1709380;81;25843;-64
2021/03/15 07:49:38;;;;;;;44.85;20.95;;;;;;;2.96;85.90;99890.84;1677876;82;27569;-63
2021/03/15 07:52:12;;;;;;;44.90;20.35;;;;;;;3.00;85.94;99899.59;1710861;81;25820;-63
2021/03/15 07:54:44;;;;;;;46.70;24.18;;;;;;;3.05;85.92;99896.38;1706532;81;25936;-63
2021/03/15 07:57:26;;;;;;;48.60;21.50;;;;;;;3.07;85.92;99894.56;1737145;80;25981;-64
2021/03/15 07:59:57;;;;;;;43.42;21.90;;;;;;;3.12;85.95;99900.16;1732017;81;26746;-63
2021/03/15 08:02:30;;;;;;;46.65;21.55;;;;;;;3.15;85.97;99892.14;1633062;84;27556;-64
2021/03/15 08:04:59;;;;;;;48.42;20.75;;;;;;;3.19;86.00;99897.77;1629916;85;26323;-66
2021/03/15 08:07:27;;;;;;;46.28;21.82;;;;;;;3.22;85.95;99901.66;1629990;85;25945;-63
2021/03/15 08:09:59;;;;;;;45.50;21.62;;;;;;;3.25;86.00;99902.91;1656126;84;26019;-63
2021/03/15 08:12:35;;;;;;;42.43;21.50;;;;;;;3.31;86.00;99897.05;1633512;85;25980;-63
2021/03/15 08:15:11;;;;;;;48.75;21.93;;;;;;;3.39;86.03;99897.26;1652933;84;25942;-63
2021/03/15 08:17:46;;;;;;;48.48;20.37;;;;;;;3.48;85.95;99899.66;1629815;85;25957;-63
2021/03/15 08:20:15;;;;;;;40.08;20.02;;;;;;;3.52;85.96;99905.75;1632079;85;26065;-63
2021/03/15 08:22:47;;;;;;;44.73;21.52;;;;;;;3.54;85.94;99899.95;1652666;84;26119;-64
2021/03/15 08:25:16;;;;;;;49.03;21.68;;;;;;;3.56;85.97;99904.77;1625526;85;25939;-64
2021/03/15 08:27:47;;;;;;;38.20;18.80;;;;;;;3.59;85.98;99904.23;1640631;85;27421;-64
2021/03/15 08:30:19;;;;;;;37.65;17.07;;;;;;;3.58;85.89;99896.31;1632942;85;26595;-64
2021/03/15 08:32:47;;;;;;;38.28;20.50;;;;;;;3.54;85.81;99902.16;1630700;85;25874;-64
2021/03/15 08:35:18;;;;;;;35.55;17.40;;;;;;;3.54;85.93;99899.50;1629963;85;26686;-64
2021/03/15 08:37:56;;;;;;;37.65;18.40;;;;;;;3.46;85.85;99893.99;1630051;85;25695;-63
2021/03/15 08:40:48;;;;;;;38.92;18.40;;;;;;;3.54;85.96;99907.45;1625755;85;28150;-64
2021/03/15 08:43:29;;;;;;;32.03;15.85;;;;;;;3.50;86.07;99915.06;1633373;85;25850;-64
2021/03/15 08:46:04;;;;;;;28.92;15.32;;;;;;;3.44;86.09;99912.58;1633726;86;25857;-66
2021/03/15 08:48:43;;;;;;;49.30;15.68;;;;;;;3.33;86.06;99917.73;1633858;85;25888;-68
2021/03/15 08:51:15;;;;;;;31.25;11.70;;;;;;;3.12;85.98;99909.42;1654817;83;25834;-67
2021/03/15 08:53:48;;;;;;;34.25;12.55;;;;;;;2.93;86.08;99915.62;1647422;85;27758;-68
2021/03/15 08:56:23;;;;;;;22.07;9.05;;;;;;;2.81;86.24;99917.69;1631492;85;25884;-68
2021/03/15 08:58:54;;;;;;;34.58;15.15;;;;;;;2.87;86.47;99917.54;1633383;85;25874;-68
2021/03/15 09:01:28;;;;;;;33.58;14.47;;;;;;;2.92;86.55;99911.69;1632936;84;26183;-68
2021/03/15 09:04:00;;;;;;;40.35;16.07;;;;;;;2.99;86.53;99911.08;1637469;86;26342;-66
2021/03/15 09:06:36;;;;;;;56.10;19.10;;;;;;;3.06;86.52;99913.55;1663379;83;27681;-68
2021/03/15 09:09:12;;;;;;;40.50;16.30;;;;;;;3.10;86.44;99912.56;1663574;84;25809;-68
2021/03/15 09:11:45;;;;;;;40.98;17.27;;;;;;;3.14;86.46;99908.06;1634799;84;25862;-67
2021/03/15 09:14:25;;;;;;;38.30;18.07;;;;;;;3.13;86.43;99903.67;1636562;84;26482;-66
2021/03/15 09:17:11;;;;;;;57.90;24.75;;;;;;;3.12;86.41;99902.80;1660219;84;26295;-66
2021/03/15 09:19:43;;;;;;;77.92;42.53;;;;;;;3.17;86.47;99900.91;1635080;84;27980;-69
2021/03/15 09:22:34;;;;;;;49.98;23.02;;;;;;;3.25;86.51;99896.74;1635040;84;25928;-69
2021/03/15 09:25:08;;;;;;;46.25;17.98;;;;;;;3.32;86.46;99899.65;1612986;86;25871;-67
2021/03/15 09:27:41;;;;;;;43.35;20.15;;;;;;;3.40;86.45;99900.32;1636262;84;25832;-66
2021/03/15 09:30:20;;;;;;;37.50;18.57;;;;;;;3.45;86.47;99895.77;1630190;84;26114;-68
2021/03/15 09:32:56;;;;;;;40.52;19.32;;;;;;;3.52;86.49;99892.05;1653779;84;27851;-65
2021/03/15 09:35:30;;;;;;;48.95;21.50;;;;;;;3.66;86.52;99893.00;1679420;83;25834;-65
2021/03/15 09:38:12;;;;;;;36.23;16.80;;;;;;;3.77;86.53;99880.78;1638682;85;26233;-66
2021/03/15 09:40:49;;;;;;;;;;;;;;;3.94;86.45;99886.48;1644615;84;25904;-66
2021/03/15 09:43:23;;;;;;;27.93;14.28;;;;;;;3.99;85.93;99883.24;1634596;84;26064;-67
2021/03/15 09:46:07;;;;;;;27.90;11.30;;;;;;;4.01;86.24;99890.70;1647749;84;26004;-66
2021/03/15 09:48:34;;;;;;;16.65;10.38;;;;;;;3.97;86.11;99885.52;1640134;84;25913;-66
2021/03/15 09:51:04;;;;;;;23.92;10.32;;;;;;;3.95;86.23;99890.87;1645996;85;26019;-66
2021/03/15 09:53:32;;;;;;;29.42;13.15;;;;;;;3.99;86.06;99887.22;1638655;84;25883;-66
2021/03/15 09:56:12;;;;;;;25.85;9.85;;;;;;;4.02;86.13;99888.91;1659369;84;25990;-65
2021/03/15 09:58:40;;;;;;;29.27;9.90;;;;;;;4.14;86.33;99895.19;1643790;84;27776;-65
2021/03/15 10:01:13;;;;;;;24.90;10.70;;;;;;;4.23;86.37;99885.63;1658994;84;26680;-65
2021/03/15 10:03:40;;;;;;;20.65;10.55;;;;;;;4.35;86.46;99879.09;1669368;83;25832;-65
2021/03/15 10:06:08;;;;;;;20.62;8.83;;;;;;;4.47;86.44;99893.31;1716750;81;25882;-66
2021/03/15 10:08:36;;;;;;;18.57;10.58;;;;;;;4.50;86.22;99887.91;1711571;81;25889;-66
2021/03/15 10:11:04;;;;;;;24.55;10.00;;;;;;;4.59;86.28;99892.94;1696349;82;25967;-65
2021/03/15 10:13:32;;;;;;;17.67;9.38;;;;;;;4.66;86.19;99888.31;1691759;81;25888;-66
2021/03/15 10:16:06;;;;;;;18.60;8.58;;;;;;;4.68;86.12;99887.34;1662696;83;25871;-65
2021/03/15 10:18:34;;;;;;;24.20;10.30;;;;;;;4.78;86.03;99879.95;1701259;81;25812;-66
2021/03/15 10:21:02;;;;;;;20.00;9.20;;;;;;;4.86;86.11;99880.13;1740298;81;25892;-67
2021/03/15 10:23:32;;;;;;;20.92;9.13;;;;;;;4.87;86.10;99876.55;1705754;81;27937;-67
2021/03/15 10:26:05;;;;;;;29.50;10.10;;;;;;;4.94;85.95;99871.04;1726282;80;25791;-67
2021/03/15 10:28:34;;;;;;;17.48;7.70;;;;;;;5.00;85.90;99857.56;1706137;81;25967;-66
2021/03/15 10:31:09;;;;;;;17.17;6.92;;;;;;;5.11;85.81;99866.91;1704097;81;25989;-66
2021/03/15 10:33:45;;;;;;;11.50;7.45;;;;;;;5.24;85.70;99859.36;1710811;80;25989;-67
2021/03/15 10:36:19;;;;;;;15.43;7.40;;;;;;;5.39;85.53;99853.52;1707735;82;27019;-66
2021/03/15 10:38:47;;;;;;;20.50;6.75;;;;;;;5.52;85.45;99854.82;1733469;81;25993;-66
2021/03/15 10:41:16;;;;;;;23.02;8.70;;;;;;;5.55;85.11;99848.53;1702815;82;26238;-67
2021/03/15 10:43:46;;;;;;;15.35;6.80;;;;;;;5.54;85.04;99842.34;1707503;81;25905;-67
2021/03/15 10:46:18;;;;;;;17.90;6.80;;;;;;;5.53;84.87;99836.62;1696145;82;25855;-66
2021/03/15 10:48:46;;;;;;;16.60;7.42;;;;;;;5.69;84.93;99843.59;1725216;80;27308;-66
2021/03/15 10:51:14;;;;;;;25.32;9.83;;;;;;;5.81;84.86;99839.15;1701013;81;26147;-66
2021/03/15 10:53:52;;;;;;;17.73;7.17;;;;;;;5.98;84.27;99831.04;1700736;80;25981;-67
2021/03/15 10:56:24;;;;;;;12.10;6.90;;;;;;;6.14;84.16;99827.74;1719291;81;26055;-66
2021/03/15 10:58:51;;;;;;;14.03;7.62;;;;;;;6.29;84.37;99835.59;1734202;80;25928;-67
2021/03/15 11:01:24;;;;;;;11.63;5.60;;;;;;;6.51;84.07;99826.31;1713323;81;27759;-66
2021/03/15 11:03:54;;;;;;;17.32;7.25;;;;;;;6.60;83.45;99832.59;1706461;82;25836;-66
2021/03/15 11:06:28;;;;;;;14.43;6.35;;;;;;;6.62;83.78;99832.07;1642457;83;26361;-67
2021/03/15 11:08:58;;;;;;;15.75;7.08;;;;;;;6.65;83.69;99825.30;1662070;83;26020;-66
2021/03/15 11:11:32;;;;;;;14.13;6.97;;;;;;;6.71;83.55;99821.52;1685117;81;26008;-66
2021/03/15 11:14:07;;;;;;;14.05;6.08;;;;;;;6.80;83.57;99822.00;1676109;82;27379;-66
2021/03/15 11:16:35;;;;;;;12.10;6.72;;;;;;;6.88;83.32;99806.17;1695048;82;26002;-66
2021/03/15 11:19:13;;;;;;;17.85;7.10;;;;;;;6.88;83.05;99808.38;1706318;81;26036;-67
2021/03/15 11:21:45;;;;;;;10.35;6.75;;;;;;;6.86;82.65;99802.70;1717494;80;26089;-66
2021/03/15 11:24:15;;;;;;;17.55;6.78;;;;;;;6.82;82.25;99797.50;1662294;83;25896;-66
2021/03/15 11:26:50;;;;;;;20.72;6.62;;;;;;;6.82;82.33;99809.49;1683633;82;27924;-67
2021/03/15 11:29:36;;;;;;;15.15;7.15;;;;;;;6.88;81.87;99796.84;1676360;82;26174;-66
2021/03/15 11:32:13;;;;;;;20.80;8.08;;;;;;;6.99;81.88;99797.27;1685225;82;25967;-66
2021/03/15 11:34:46;;;;;;;15.65;6.53;;;;;;;7.15;79.78;99792.55;1661795;82;26633;-67
2021/03/15 11:37:15;;;;;;;18.37;5.67;;;;;;;7.32;81.54;99800.28;1686954;81;25889;-65
2021/03/15 11:39:45;;;;;;;11.57;5.65;;;;;;;7.42;80.56;99795.81;1685071;83;28464;-66
2021/03/15 11:42:31;;;;;;;18.45;5.70;;;;;;;7.49;80.49;99793.28;1685832;81;25828;-66
2021/03/15 11:44:59;;;;;;;13.80;5.70;;;;;;;7.64;80.71;99791.73;1697710;81;25874;-64
2021/03/15 11:47:27;;;;;;;15.70;5.47;;;;;;;7.78;80.21;99782.64;1670628;82;25896;-65
2021/03/15 11:49:55;;;;;;;10.35;4.65;;;;;;;7.86;79.87;99787.59;1673953;82;25898;-65
2021/03/15 11:52:27;;;;;;;13.62;6.05;;;;;;;7.93;79.61;99782.84;1673505;81;27871;-64
2021/03/15 11:54:55;;;;;;;19.75;5.10;;;;;;;8.00;79.37;99783.81;1717108;80;25772;-64
2021/03/15 11:57:23;;;;;;;11.83;4.60;;;;;;;7.93;78.32;99786.84;1689190;81;25770;-64